KPBF/PBF METAR and TAF weather

Enter ICAO airport designator
Station Type Date Time Source
KPBF METAR 2019/08/22 03:53 UTC NOAA

KPBF 220353Z AUTO 14006KT 10SM CLR 26/21 A2994 RMK AO2 SLP137 T02610211


Station Type Date Time Source
KPBF Decoded METAR 2019/08/22 03:53 UTC NOAA

Station name not available
Aug 21, 2019 - 11:53 PM EDT / 2019.08.22 0353 UTC
Wind: from the SE (140 degrees) at 7 MPH (6 KT):0
Visibility: 10 mile(s):0
Sky conditions: clear
Temperature: 79.0 F (26.1 C)
Dew Point: 70.0 F (21.1 C)
Relative Humidity: 73%
Pressure (altimeter): 29.94 in. Hg (1013 hPa)
ob: KPBF 220353Z AUTO 14006KT 10SM CLR 26/21 A2994 RMK AO2 SLP137 T02610211
cycle: 4

Station Type Date Time Source
KPBF TAF 2019/08/21 18:39 UTC NOAA

KPBF 211735Z 2118/2218 15006KT P6SM SCT040 SCT250
FM220000 15003KT P6SM SCT250
FM221500 21006KT P6SM BKN040

Example: see airport list